createdAt,value
2018-08-22T00:00:11.998Z,0.00
2018-08-22T00:01:11.997Z,0.00
2018-08-22T00:02:11.994Z,0.00
2018-08-22T00:03:11.994Z,0.00
2018-08-22T00:04:11.995Z,0.00
2018-08-22T00:05:11.991Z,0.00
2018-08-22T00:06:11.991Z,0.00
2018-08-22T00:07:11.987Z,0.00
2018-08-22T00:08:11.987Z,0.00
2018-08-22T00:09:11.983Z,0.00
2018-08-22T00:10:11.985Z,0.00
2018-08-22T00:11:11.985Z,0.00
2018-08-22T00:12:11.980Z,0.00
2018-08-22T00:13:11.979Z,0.00
2018-08-22T00:14:11.978Z,0.00
2018-08-22T00:15:12.022Z,0.00
2018-08-22T00:16:11.976Z,0.00
2018-08-22T00:17:11.974Z,0.00
2018-08-22T00:18:11.968Z,0.00
2018-08-22T00:19:11.972Z,0.00
2018-08-22T00:20:11.970Z,0.00
2018-08-22T00:21:11.968Z,0.00
2018-08-22T00:22:11.966Z,0.00
2018-08-22T00:23:11.966Z,0.00
2018-08-22T00:24:11.960Z,0.00
2018-08-22T00:25:11.991Z,0.00
2018-08-22T00:26:11.961Z,0.00
2018-08-22T00:27:11.962Z,0.00
2018-08-22T00:28:11.958Z,0.00
2018-08-22T00:29:11.963Z,0.00
2018-08-22T00:30:11.953Z,0.00
2018-08-22T00:31:11.957Z,0.00
2018-08-22T00:32:11.953Z,0.00
2018-08-22T00:33:11.953Z,0.00
2018-08-22T00:34:11.951Z,0.00
2018-08-22T00:35:11.949Z,0.00
2018-08-22T00:36:11.947Z,0.00
2018-08-22T00:37:11.947Z,0.00
2018-08-22T00:38:11.943Z,0.00
2018-08-22T00:39:11.942Z,0.00
2018-08-22T00:40:11.939Z,0.00
2018-08-22T00:41:11.938Z,0.00
2018-08-22T00:42:11.940Z,0.00
2018-08-22T00:43:11.936Z,0.00
2018-08-22T00:44:11.937Z,0.00
2018-08-22T00:45:11.937Z,0.00
2018-08-22T00:46:11.928Z,0.00
2018-08-22T00:47:11.929Z,0.00
2018-08-22T00:48:11.929Z,0.00
2018-08-22T00:49:11.926Z,0.00
2018-08-22T00:50:11.924Z,0.00
2018-08-22T00:51:11.925Z,0.00
2018-08-22T00:52:11.923Z,0.00
2018-08-22T00:53:11.921Z,0.00
2018-08-22T00:54:11.922Z,0.00
2018-08-22T00:55:11.918Z,0.00
2018-08-22T00:56:11.917Z,0.00
2018-08-22T00:57:11.918Z,0.00
2018-08-22T00:58:11.913Z,0.00
2018-08-22T00:59:11.912Z,0.00
2018-08-22T01:00:11.910Z,0.00
2018-08-22T01:01:11.909Z,0.00
2018-08-22T01:02:11.910Z,0.00
2018-08-22T01:03:11.906Z,0.00
2018-08-22T01:04:11.912Z,0.00
2018-08-22T01:05:11.904Z,0.00
2018-08-22T01:06:11.900Z,0.00
2018-08-22T01:07:11.900Z,0.00
2018-08-22T01:08:11.900Z,0.00
2018-08-22T01:09:11.896Z,0.00
2018-08-22T01:10:11.894Z,0.00
2018-08-22T01:11:11.892Z,0.00
2018-08-22T01:12:11.891Z,0.00
2018-08-22T01:13:11.887Z,0.00
2018-08-22T01:14:11.888Z,0.00
2018-08-22T01:15:11.885Z,0.00
2018-08-22T01:16:11.883Z,0.00
2018-08-22T01:17:11.886Z,0.00
2018-08-22T01:18:11.879Z,0.00
2018-08-22T01:19:11.877Z,0.00
2018-08-22T01:20:11.879Z,0.00
2018-08-22T01:21:11.874Z,0.00
2018-08-22T01:22:11.874Z,0.00
2018-08-22T01:23:11.871Z,0.00
2018-08-22T01:24:11.870Z,0.00
2018-08-22T01:25:11.863Z,0.00
2018-08-22T01:26:11.866Z,0.00
2018-08-22T01:27:11.863Z,0.00
2018-08-22T01:28:11.862Z,0.00
2018-08-22T01:29:11.860Z,0.00
2018-08-22T01:30:11.857Z,0.00
2018-08-22T01:31:11.857Z,0.00
2018-08-22T01:32:11.852Z,0.00
2018-08-22T01:33:11.856Z,0.00
2018-08-22T01:34:11.850Z,0.00
2018-08-22T01:35:11.846Z,0.00
2018-08-22T01:36:11.844Z,0.00
2018-08-22T01:37:11.843Z,0.00
2018-08-22T01:38:11.843Z,0.00
2018-08-22T01:39:11.840Z,0.00
2018-08-22T01:40:11.842Z,0.00
2018-08-22T01:41:11.836Z,0.00
2018-08-22T01:42:11.836Z,0.00
2018-08-22T01:43:11.832Z,0.00
2018-08-22T01:44:11.829Z,0.00
2018-08-22T01:45:11.830Z,0.00
2018-08-22T01:46:11.826Z,0.00
2018-08-22T01:47:11.825Z,0.00
2018-08-22T01:48:11.824Z,0.00
2018-08-22T01:49:11.819Z,0.00
2018-08-22T01:50:11.817Z,0.00
2018-08-22T01:51:11.815Z,0.00
2018-08-22T01:52:11.815Z,0.00
2018-08-22T01:53:11.812Z,0.00
2018-08-22T01:54:11.809Z,0.00
2018-08-22T01:55:11.813Z,0.00
2018-08-22T01:56:11.809Z,0.00
2018-08-22T01:57:11.805Z,0.00
2018-08-22T01:58:11.804Z,0.00
2018-08-22T01:59:11.801Z,0.00
2018-08-22T02:00:11.800Z,0.00
2018-08-22T02:01:11.796Z,0.00
2018-08-22T02:02:11.793Z,0.00
2018-08-22T02:03:11.793Z,0.00
2018-08-22T02:04:11.791Z,0.00
2018-08-22T02:05:11.788Z,0.00
2018-08-22T02:06:11.785Z,0.00
2018-08-22T02:07:11.783Z,0.00
2018-08-22T02:08:11.782Z,0.00
2018-08-22T02:09:11.779Z,0.00
2018-08-22T02:10:11.779Z,0.00
2018-08-22T02:11:11.775Z,0.00
2018-08-22T02:12:11.774Z,0.00
2018-08-22T02:13:11.772Z,0.00
2018-08-22T02:14:11.770Z,0.00
2018-08-22T02:15:11.766Z,0.00
2018-08-22T02:16:11.766Z,0.00
2018-08-22T02:17:11.762Z,0.00
2018-08-22T02:18:11.760Z,0.00
2018-08-22T02:19:11.759Z,0.00
2018-08-22T02:20:11.757Z,0.00
2018-08-22T02:21:11.753Z,0.00
2018-08-22T02:22:11.751Z,0.00
2018-08-22T02:23:11.749Z,0.00
2018-08-22T02:24:11.747Z,0.00
2018-08-22T02:25:11.757Z,0.00
2018-08-22T02:26:11.744Z,0.00
2018-08-22T02:27:11.742Z,0.00
2018-08-22T02:28:11.738Z,0.00
2018-08-22T02:29:11.739Z,0.00
2018-08-22T02:30:11.736Z,0.00
2018-08-22T02:31:11.731Z,0.00
2018-08-22T02:32:11.731Z,0.00
2018-08-22T02:33:11.727Z,0.00
2018-08-22T02:34:11.726Z,0.00
2018-08-22T02:35:11.724Z,0.00
2018-08-22T02:36:11.721Z,0.00
2018-08-22T02:37:11.718Z,0.00
2018-08-22T02:38:11.717Z,0.00
2018-08-22T02:39:11.714Z,0.00
2018-08-22T02:40:11.712Z,0.00
2018-08-22T02:41:11.710Z,0.00
2018-08-22T02:42:11.708Z,0.00
2018-08-22T02:43:11.704Z,0.00
2018-08-22T02:44:11.704Z,0.00
2018-08-22T02:45:11.701Z,0.00
2018-08-22T02:46:11.697Z,0.00
2018-08-22T02:47:11.695Z,0.00
2018-08-22T02:48:11.694Z,0.00
2018-08-22T02:49:11.690Z,0.00
2018-08-22T02:50:11.689Z,0.00
2018-08-22T02:51:11.687Z,0.00
2018-08-22T02:52:11.684Z,0.00
2018-08-22T02:53:11.681Z,0.00
2018-08-22T02:54:11.680Z,0.00
2018-08-22T02:55:11.676Z,0.00
2018-08-22T02:56:11.674Z,0.00
2018-08-22T02:57:11.672Z,0.00
2018-08-22T02:58:11.670Z,0.00
2018-08-22T02:59:11.668Z,0.00
2018-08-22T03:00:11.665Z,0.00
2018-08-22T03:01:11.666Z,0.00
2018-08-22T03:02:11.660Z,0.00
2018-08-22T03:03:11.658Z,0.00
2018-08-22T03:04:11.652Z,0.00
2018-08-22T03:05:11.651Z,0.00
2018-08-22T03:06:11.650Z,0.00
2018-08-22T03:07:11.649Z,0.00
2018-08-22T03:08:11.647Z,0.00
2018-08-22T03:09:11.641Z,0.00
2018-08-22T03:10:11.641Z,0.00
2018-08-22T03:11:11.638Z,0.00
2018-08-22T03:12:11.637Z,0.00
2018-08-22T03:13:11.633Z,0.00
2018-08-22T03:14:11.631Z,0.00
2018-08-22T03:15:11.628Z,0.00
2018-08-22T03:16:11.629Z,0.00
2018-08-22T03:17:11.622Z,0.00
2018-08-22T03:18:11.620Z,0.00
2018-08-22T03:19:11.619Z,0.00
2018-08-22T03:20:11.615Z,0.00
2018-08-22T03:21:11.612Z,0.00
2018-08-22T03:22:11.608Z,0.00
2018-08-22T03:23:11.606Z,0.00
2018-08-22T03:24:11.604Z,0.00
2018-08-22T03:25:11.606Z,4.00
2018-08-22T03:26:11.694Z,4.00
2018-08-22T03:27:11.594Z,0.00
2018-08-22T03:28:11.596Z,0.00
2018-08-22T03:29:11.592Z,4.00
2018-08-22T03:30:11.591Z,4.00
2018-08-22T03:31:11.590Z,4.00
2018-08-22T03:32:11.585Z,8.00
2018-08-22T03:33:11.581Z,4.00
2018-08-22T03:34:11.577Z,4.00
2018-08-22T03:35:11.575Z,4.00
2018-08-22T03:36:11.573Z,12.00
2018-08-22T03:37:11.569Z,12.00
2018-08-22T03:38:11.566Z,12.00
2018-08-22T03:39:11.565Z,12.00
2018-08-22T03:40:11.563Z,16.00
2018-08-22T03:41:11.564Z,16.00
2018-08-22T03:42:11.560Z,24.00
2018-08-22T03:43:11.557Z,24.00
2018-08-22T03:44:11.553Z,28.00
2018-08-22T03:45:11.552Z,28.00
2018-08-22T03:46:11.546Z,36.00
2018-08-22T03:47:11.543Z,40.00
2018-08-22T03:48:11.543Z,44.00
2018-08-22T03:49:11.538Z,48.00
2018-08-22T03:50:11.535Z,60.00
2018-08-22T03:51:11.534Z,64.00
2018-08-22T03:52:11.530Z,72.00
2018-08-22T03:53:11.525Z,84.00
2018-08-22T03:54:11.525Z,92.00
2018-08-22T03:55:11.523Z,100.00
2018-08-22T03:56:11.519Z,108.00
2018-08-22T03:57:11.516Z,116.00
2018-08-22T03:58:11.516Z,128.00
2018-08-22T03:59:11.510Z,136.00
2018-08-22T04:00:11.509Z,144.00
2018-08-22T04:01:11.505Z,160.00
2018-08-22T04:02:11.504Z,176.00
2018-08-22T04:03:11.500Z,192.00
2018-08-22T04:04:11.498Z,204.00
2018-08-22T04:05:11.496Z,224.00
2018-08-22T04:06:11.494Z,240.00
2018-08-22T04:07:11.491Z,260.00
2018-08-22T04:08:11.487Z,280.00
2018-08-22T04:09:11.485Z,296.00
2018-08-22T04:10:11.481Z,320.00
2018-08-22T04:11:11.479Z,344.00
2018-08-22T04:12:11.478Z,368.00
2018-08-22T04:13:11.471Z,392.00
2018-08-22T04:14:11.470Z,420.00
2018-08-22T04:15:11.467Z,444.00
2018-08-22T04:16:11.466Z,476.00
2018-08-22T04:17:11.463Z,504.00
2018-08-22T04:18:11.459Z,528.00
2018-08-22T04:19:11.457Z,560.00
2018-08-22T04:20:11.456Z,592.00
2018-08-22T04:21:11.455Z,624.00
2018-08-22T04:22:11.452Z,656.00
2018-08-22T04:23:11.446Z,684.00
2018-08-22T04:24:11.449Z,716.00
2018-08-22T04:25:11.441Z,752.00
2018-08-22T04:26:11.440Z,784.00
2018-08-22T04:27:11.435Z,816.00
2018-08-22T04:28:11.434Z,856.00
2018-08-22T04:29:11.431Z,900.00
2018-08-22T04:30:11.429Z,940.00
2018-08-22T04:31:11.424Z,980.00
2018-08-22T04:32:11.420Z,1020.00
2018-08-22T04:33:11.420Z,1056.00
2018-08-22T04:34:11.422Z,1096.00
2018-08-22T04:35:11.409Z,1136.00
2018-08-22T04:36:11.410Z,1172.00
2018-08-22T04:37:11.407Z,1208.00
2018-08-22T04:38:11.407Z,1244.00
2018-08-22T04:39:11.402Z,1280.00
2018-08-22T04:40:11.400Z,1316.00
2018-08-22T04:41:11.397Z,1352.00
2018-08-22T04:42:11.394Z,1384.00
2018-08-22T04:43:11.392Z,1424.00
2018-08-22T04:44:11.390Z,1460.00
2018-08-22T04:45:11.396Z,1504.00
2018-08-22T04:46:11.385Z,1548.00
2018-08-22T04:47:11.382Z,1596.00
2018-08-22T04:48:11.413Z,1644.00
2018-08-22T04:49:11.375Z,1692.00
2018-08-22T04:50:11.373Z,1752.00
2018-08-22T04:51:11.372Z,1816.00
2018-08-22T04:52:11.369Z,1884.00
2018-08-22T04:53:11.366Z,1956.00
2018-08-22T04:54:11.363Z,2044.00
2018-08-22T04:55:11.365Z,2148.00
2018-08-22T04:56:11.359Z,2252.00
2018-08-22T04:57:11.355Z,2356.00
2018-08-22T04:58:11.351Z,2492.00
2018-08-22T04:59:11.353Z,2680.00
2018-08-22T05:00:11.347Z,2872.00
2018-08-22T05:01:11.346Z,3048.00
2018-08-22T05:02:11.341Z,3192.00
2018-08-22T05:03:11.345Z,3308.00
2018-08-22T05:04:11.339Z,3408.00
2018-08-22T05:05:11.333Z,3492.00
2018-08-22T05:06:11.331Z,3580.00
2018-08-22T05:07:11.332Z,3656.00
2018-08-22T05:08:11.329Z,3716.00
2018-08-22T05:09:11.327Z,3780.00
2018-08-22T05:10:11.325Z,3836.00
2018-08-22T05:11:11.323Z,3888.00
2018-08-22T05:12:11.321Z,3948.00
2018-08-22T05:13:11.319Z,4004.00
2018-08-22T05:14:11.316Z,4056.00
2018-08-22T05:15:11.319Z,4092.00
2018-08-22T05:16:11.314Z,4120.00
2018-08-22T05:17:11.314Z,4152.00
2018-08-22T05:18:11.315Z,4184.00
2018-08-22T05:19:11.311Z,4228.00
2018-08-22T05:20:11.309Z,4280.00
2018-08-22T05:21:11.306Z,4332.00
2018-08-22T05:22:11.306Z,4372.00
2018-08-22T05:23:11.304Z,4424.00
2018-08-22T05:24:11.300Z,4472.00
2018-08-22T05:25:11.301Z,4532.00
2018-08-22T05:26:11.308Z,4592.00
2018-08-22T05:27:11.301Z,4648.00
2018-08-22T05:28:11.302Z,4728.00
2018-08-22T05:29:11.303Z,4800.00
2018-08-22T05:30:11.356Z,4852.00
2018-08-22T05:31:11.301Z,4924.00
2018-08-22T05:32:11.298Z,5004.00
2018-08-22T05:33:11.302Z,5088.00
2018-08-22T05:34:11.303Z,5184.00
2018-08-22T05:35:11.301Z,5312.00
2018-08-22T05:36:11.301Z,5892.00
2018-08-22T05:37:11.300Z,7600.00
2018-08-22T05:38:11.300Z,8700.00
2018-08-22T05:39:11.300Z,9704.00
2018-08-22T05:40:11.303Z,10932.00
2018-08-22T05:41:11.313Z,11496.00
2018-08-22T05:42:11.301Z,11800.00
2018-08-22T05:43:11.305Z,12184.00
2018-08-22T05:44:11.309Z,12192.00
2018-08-22T05:45:11.300Z,12764.00
2018-08-22T05:46:11.308Z,13888.00
2018-08-22T05:47:11.350Z,14080.00
2018-08-22T05:48:11.299Z,13696.00
2018-08-22T05:49:11.397Z,13344.00
2018-08-22T05:50:11.305Z,13632.00
2018-08-22T05:51:11.309Z,14432.00
2018-08-22T05:52:11.308Z,15264.00
2018-08-22T05:53:11.307Z,15968.00
2018-08-22T05:54:11.312Z,16160.00
2018-08-22T05:55:11.312Z,16000.00
2018-08-22T05:56:11.315Z,15968.00
2018-08-22T05:57:11.318Z,16416.00
2018-08-22T05:58:11.316Z,16896.00
2018-08-22T05:59:11.318Z,17920.00
2018-08-22T06:00:11.317Z,17984.00
2018-08-22T06:01:11.322Z,18688.00
2018-08-22T06:02:11.322Z,18592.00
2018-08-22T06:03:11.376Z,18496.00
2018-08-22T06:04:11.326Z,19264.00
2018-08-22T06:05:11.325Z,19520.00
2018-08-22T06:06:11.328Z,19584.00
2018-08-22T06:07:11.333Z,19520.00
2018-08-22T06:08:11.347Z,19072.00
2018-08-22T06:09:11.365Z,18304.00
2018-08-22T06:10:11.339Z,18912.00
2018-08-22T06:11:11.336Z,19840.00
2018-08-22T06:12:11.340Z,22496.00
2018-08-22T06:13:11.349Z,24192.00
2018-08-22T06:14:11.346Z,24320.00
2018-08-22T06:15:11.355Z,24736.00
2018-08-22T06:16:11.342Z,23392.00
2018-08-22T06:17:11.349Z,22176.00
2018-08-22T06:18:11.350Z,21824.00
2018-08-22T06:19:11.361Z,23872.00
2018-08-22T06:20:11.355Z,25120.00
2018-08-22T06:21:11.357Z,27168.00
2018-08-22T06:22:11.360Z,28704.00
2018-08-22T06:23:11.362Z,27968.00
2018-08-22T06:24:11.364Z,28480.00
2018-08-22T06:25:11.364Z,28480.00
2018-08-22T06:26:11.369Z,29952.00
2018-08-22T06:27:11.376Z,28672.00
2018-08-22T06:28:11.373Z,29664.00
2018-08-22T06:29:11.376Z,29312.00
2018-08-22T06:30:11.378Z,29376.00
2018-08-22T06:31:11.382Z,30112.00
2018-08-22T06:32:11.387Z,29376.00
2018-08-22T06:33:11.388Z,31776.00
2018-08-22T06:34:11.844Z,32448.00
2018-08-22T06:35:11.694Z,32032.00
2018-08-22T06:36:11.433Z,32384.00
2018-08-22T06:37:11.402Z,30880.00
2018-08-22T06:38:11.404Z,31136.00
2018-08-22T06:39:11.420Z,30144.00
2018-08-22T06:40:11.680Z,31072.00
2018-08-22T06:41:11.522Z,29856.00
2018-08-22T06:42:11.470Z,33216.00
2018-08-22T06:43:11.423Z,34304.00
2018-08-22T06:44:11.471Z,33824.00
2018-08-22T06:45:11.540Z,36000.00
2018-08-22T06:46:11.436Z,34752.00
2018-08-22T06:47:11.438Z,32128.00
2018-08-22T06:48:11.441Z,34624.00
2018-08-22T06:49:11.446Z,36288.00
2018-08-22T06:50:11.559Z,38304.00
2018-08-22T06:51:11.452Z,38720.00
2018-08-22T06:52:11.463Z,34528.00
2018-08-22T06:53:11.467Z,31456.00
2018-08-22T06:54:11.470Z,31872.00
2018-08-22T06:55:11.471Z,35488.00
2018-08-22T06:56:11.476Z,35008.00
2018-08-22T06:57:11.570Z,36480.00
2018-08-22T06:58:11.483Z,40832.00
2018-08-22T06:59:11.491Z,42784.00
2018-08-22T07:00:11.493Z,42272.00
2018-08-22T07:01:11.544Z,41728.00
2018-08-22T07:02:11.502Z,39232.00
2018-08-22T07:04:11.541Z,43488.00
2018-08-22T07:05:11.515Z,39712.00
2018-08-22T07:06:11.521Z,37024.00
2018-08-22T07:08:11.606Z,44480.00
2018-08-22T07:09:11.567Z,47008.00
2018-08-22T07:10:11.542Z,45248.00
2018-08-22T07:11:11.548Z,35936.00
2018-08-22T07:12:11.555Z,36800.00
2018-08-22T07:13:11.694Z,36160.00
2018-08-22T07:14:11.805Z,38592.00
2018-08-22T07:15:11.846Z,46528.00
2018-08-22T07:16:11.734Z,43232.00
2018-08-22T07:17:11.643Z,39744.00
2018-08-22T07:18:11.586Z,34560.00
2018-08-22T07:19:11.592Z,30304.00
2018-08-22T07:20:11.599Z,31264.00
2018-08-22T07:21:11.606Z,34432.00
2018-08-22T07:22:11.610Z,40448.00
2018-08-22T07:23:11.617Z,39968.00
2018-08-22T07:24:11.625Z,35968.00
2018-08-22T07:25:11.628Z,30976.00
2018-08-22T07:26:11.634Z,27936.00
2018-08-22T07:27:11.639Z,32224.00
2018-08-22T07:28:11.648Z,37440.00
2018-08-22T07:29:11.652Z,42144.00
2018-08-22T07:30:11.743Z,36896.00
2018-08-22T07:31:11.666Z,30112.00
2018-08-22T07:32:11.673Z,31808.00
2018-08-22T07:33:11.677Z,29952.00
2018-08-22T07:34:11.684Z,27040.00
2018-08-22T07:35:11.692Z,31552.00
2018-08-22T07:36:11.699Z,33984.00
2018-08-22T07:37:11.710Z,35744.00
2018-08-22T07:38:11.713Z,35360.00
2018-08-22T07:39:11.720Z,29984.00
2018-08-22T07:40:11.726Z,27168.00
2018-08-22T07:41:11.732Z,27424.00
2018-08-22T07:42:11.735Z,28064.00
2018-08-22T07:43:11.745Z,29984.00
2018-08-22T07:44:11.753Z,30656.00
2018-08-22T07:45:11.758Z,33408.00
2018-08-22T07:46:11.765Z,36224.00
2018-08-22T07:47:11.849Z,35616.00
2018-08-22T07:48:11.784Z,31456.00
2018-08-22T07:49:11.788Z,20640.00
2018-08-22T07:50:11.803Z,12272.00
2018-08-22T07:51:11.805Z,7704.00
2018-08-22T07:52:11.811Z,6636.00
2018-08-22T07:53:11.831Z,7496.00
2018-08-22T07:54:11.825Z,8624.00
2018-08-22T07:55:11.833Z,7420.00
2018-08-22T07:56:11.841Z,6180.00
2018-08-22T07:57:11.845Z,6208.00
2018-08-22T07:58:11.853Z,5892.00
2018-08-22T07:59:11.864Z,8388.00
2018-08-22T08:00:11.952Z,9080.00
2018-08-22T08:01:11.871Z,9016.00
2018-08-22T08:02:11.877Z,6464.00
2018-08-22T08:03:11.883Z,4828.00
2018-08-22T08:04:11.889Z,4672.00
2018-08-22T08:05:11.897Z,4816.00
2018-08-22T08:06:11.900Z,4588.00
2018-08-22T08:07:11.909Z,4540.00
2018-08-22T08:08:11.914Z,4452.00
2018-08-22T08:09:11.924Z,4456.00
2018-08-22T08:10:11.922Z,4544.00
2018-08-22T08:11:11.929Z,5156.00
2018-08-22T08:12:11.933Z,5772.00
2018-08-22T08:13:11.933Z,7240.00
2018-08-22T08:14:11.943Z,9060.00
2018-08-22T08:15:11.961Z,6368.00
2018-08-22T08:16:11.951Z,6688.00
2018-08-22T08:17:12.024Z,6596.00
2018-08-22T08:18:11.960Z,4808.00
2018-08-22T08:19:11.967Z,4580.00
2018-08-22T08:20:11.973Z,4436.00
2018-08-22T08:21:11.975Z,4408.00
2018-08-22T08:22:11.980Z,4416.00
2018-08-22T08:23:11.984Z,4648.00
2018-08-22T08:24:11.988Z,4760.00
2018-08-22T08:25:11.989Z,4756.00
2018-08-22T08:26:12.045Z,6212.00
2018-08-22T08:27:12.002Z,11864.00
2018-08-22T08:28:12.004Z,33504.00
2018-08-22T08:29:12.006Z,58976.00
2018-08-22T08:30:12.011Z,56384.00
2018-08-22T08:31:12.017Z,27904.00
2018-08-22T08:32:12.022Z,7356.00
2018-08-22T08:33:12.023Z,4556.00
2018-08-22T08:34:12.031Z,4288.00
2018-08-22T08:35:12.034Z,4156.00
2018-08-22T08:36:12.147Z,4112.00
2018-08-22T08:37:12.041Z,4068.00
2018-08-22T08:38:12.047Z,4044.00
2018-08-22T08:39:12.054Z,4020.00
2018-08-22T08:40:12.055Z,4004.00
2018-08-22T08:41:12.059Z,4020.00
2018-08-22T08:42:12.064Z,4008.00
2018-08-22T08:43:12.074Z,4004.00
2018-08-22T08:44:12.074Z,3980.00
2018-08-22T08:45:12.081Z,3940.00
2018-08-22T08:46:12.079Z,3916.00
2018-08-22T08:47:12.083Z,3868.00
2018-08-22T08:48:12.088Z,3860.00
2018-08-22T08:49:12.090Z,3832.00
2018-08-22T08:50:12.091Z,3820.00
2018-08-22T08:51:12.105Z,3816.00
2018-08-22T08:52:12.101Z,3816.00
2018-08-22T08:53:12.105Z,3812.00
2018-08-22T08:54:12.109Z,3800.00
2018-08-22T08:55:12.113Z,3792.00
2018-08-22T08:56:12.119Z,3792.00
2018-08-22T08:57:12.154Z,3796.00
2018-08-22T08:58:12.123Z,3796.00
2018-08-22T08:59:12.128Z,3784.00
2018-08-22T09:00:12.138Z,3788.00
2018-08-22T09:01:12.159Z,3768.00
2018-08-22T09:02:12.138Z,3764.00
2018-08-22T09:03:12.140Z,3752.00
2018-08-22T09:04:12.144Z,3744.00
2018-08-22T09:05:12.152Z,3748.00
2018-08-22T09:06:12.153Z,3740.00
2018-08-22T09:07:12.155Z,3752.00
2018-08-22T09:08:12.159Z,3752.00
2018-08-22T09:09:12.163Z,3760.00
2018-08-22T09:10:12.165Z,3760.00
2018-08-22T09:11:12.170Z,3744.00
2018-08-22T09:12:12.201Z,3744.00
2018-08-22T09:13:12.176Z,3740.00
2018-08-22T09:14:12.180Z,3728.00
2018-08-22T09:15:12.187Z,3720.00
2018-08-22T09:16:12.187Z,3700.00
2018-08-22T09:17:12.219Z,3680.00
2018-08-22T09:18:12.193Z,3668.00
2018-08-22T09:19:12.198Z,3656.00
2018-08-22T09:20:12.200Z,3640.00
2018-08-22T09:21:12.219Z,3624.00
2018-08-22T09:22:12.225Z,3624.00
2018-08-22T09:23:12.212Z,3608.00
2018-08-22T09:24:12.288Z,3584.00
2018-08-22T09:25:12.216Z,3568.00
2018-08-22T09:26:12.221Z,3552.00
2018-08-22T09:27:12.225Z,3536.00
2018-08-22T09:28:12.260Z,3520.00
2018-08-22T09:29:12.230Z,3504.00
2018-08-22T09:30:12.231Z,3500.00
2018-08-22T09:31:12.236Z,3480.00
2018-08-22T09:32:12.240Z,3464.00
2018-08-22T09:33:12.243Z,3444.00
2018-08-22T09:34:12.244Z,3412.00
2018-08-22T09:35:12.249Z,3400.00
2018-08-22T09:36:12.254Z,3372.00
2018-08-22T09:37:12.256Z,3352.00
2018-08-22T09:38:12.257Z,3340.00
2018-08-22T09:39:12.261Z,3324.00
2018-08-22T09:40:12.324Z,3304.00
2018-08-22T09:41:12.270Z,3296.00
2018-08-22T09:42:12.271Z,3264.00
2018-08-22T09:43:12.323Z,3252.00
2018-08-22T09:44:12.280Z,3248.00
2018-08-22T09:45:12.283Z,3240.00
2018-08-22T09:46:12.281Z,3232.00
2018-08-22T09:47:12.288Z,3228.00
2018-08-22T09:48:12.299Z,3216.00
2018-08-22T09:49:12.296Z,3200.00
2018-08-22T09:50:12.323Z,3188.00
2018-08-22T09:51:12.324Z,3184.00
2018-08-22T09:52:12.304Z,3172.00
2018-08-22T09:53:12.310Z,3168.00
2018-08-22T09:54:12.311Z,3160.00
2018-08-22T09:55:12.315Z,3148.00
2018-08-22T09:56:12.317Z,3148.00
2018-08-22T09:57:12.320Z,3128.00
2018-08-22T09:58:12.438Z,3116.00
2018-08-22T09:59:12.330Z,3100.00
2018-08-22T10:00:12.362Z,3092.00
2018-08-22T10:01:12.335Z,3084.00
2018-08-22T10:02:12.338Z,3080.00
2018-08-22T10:03:12.342Z,3076.00
2018-08-22T10:04:12.346Z,3072.00
2018-08-22T10:05:12.348Z,3068.00
2018-08-22T10:06:12.366Z,3064.00
2018-08-22T10:07:12.464Z,3060.00
2018-08-22T10:08:12.363Z,3048.00
2018-08-22T10:09:12.363Z,3036.00
2018-08-22T10:10:12.397Z,3036.00
2018-08-22T10:11:12.374Z,3032.00
2018-08-22T10:12:12.375Z,3016.00
2018-08-22T10:13:12.376Z,3020.00
2018-08-22T10:14:12.379Z,3012.00
2018-08-22T10:15:12.382Z,2996.00
2018-08-22T10:16:12.387Z,2984.00
2018-08-22T10:17:12.399Z,2992.00
2018-08-22T10:18:12.394Z,2984.00
2018-08-22T10:19:12.439Z,2976.00
2018-08-22T10:20:12.402Z,2968.00
2018-08-22T10:21:12.406Z,2964.00
2018-08-22T10:22:12.409Z,2956.00
2018-08-22T10:23:12.412Z,2948.00
2018-08-22T10:24:12.419Z,2944.00
2018-08-22T10:25:12.417Z,2940.00
2018-08-22T10:26:12.423Z,2940.00
2018-08-22T10:27:12.430Z,2928.00
2018-08-22T10:28:12.431Z,2920.00
2018-08-22T10:29:12.435Z,2908.00
2018-08-22T10:30:12.438Z,2912.00
2018-08-22T10:31:12.443Z,2908.00
2018-08-22T10:32:12.446Z,2908.00
2018-08-22T10:33:12.448Z,2900.00
2018-08-22T10:34:12.450Z,2884.00
2018-08-22T10:35:12.455Z,2872.00
2018-08-22T10:36:12.460Z,2864.00
2018-08-22T10:37:12.462Z,2856.00
2018-08-22T10:38:12.466Z,2852.00
2018-08-22T10:39:12.468Z,2848.00
2018-08-22T10:40:12.478Z,2840.00
2018-08-22T10:41:12.478Z,2832.00
2018-08-22T10:42:12.481Z,2824.00
2018-08-22T10:43:12.485Z,2820.00
2018-08-22T10:44:12.486Z,2816.00
2018-08-22T10:45:12.491Z,2768.00
2018-08-22T10:46:12.499Z,2772.00
2018-08-22T10:47:12.502Z,2792.00
2018-08-22T10:48:12.503Z,2784.00
2018-08-22T10:49:12.504Z,2768.00
2018-08-22T10:50:12.509Z,2768.00
2018-08-22T10:51:12.513Z,2760.00
2018-08-22T10:52:12.518Z,2744.00
2018-08-22T10:53:12.519Z,2736.00
2018-08-22T10:54:12.526Z,2732.00
2018-08-22T10:55:12.532Z,2728.00
2018-08-22T10:56:12.531Z,2720.00
2018-08-22T10:57:12.534Z,2716.00
2018-08-22T10:58:12.539Z,2712.00
2018-08-22T10:59:12.544Z,2716.00
2018-08-22T11:00:12.548Z,2716.00
2018-08-22T11:01:12.552Z,2712.00
2018-08-22T11:02:12.554Z,2704.00
2018-08-22T11:03:12.558Z,2696.00
2018-08-22T11:04:12.562Z,2696.00
2018-08-22T11:05:12.564Z,2688.00
2018-08-22T11:06:12.570Z,2684.00
2018-08-22T11:07:12.576Z,2684.00
2018-08-22T11:08:12.577Z,2680.00
2018-08-22T11:09:12.581Z,2668.00
2018-08-22T11:10:12.586Z,2660.00
2018-08-22T11:11:12.590Z,2664.00
2018-08-22T11:12:12.592Z,2660.00
2018-08-22T11:13:12.595Z,2664.00
2018-08-22T11:14:12.605Z,2656.00
2018-08-22T11:15:12.603Z,2644.00
2018-08-22T11:16:12.641Z,2656.00
2018-08-22T11:17:12.614Z,2656.00
2018-08-22T11:18:12.617Z,2652.00
2018-08-22T11:19:12.619Z,2652.00
2018-08-22T11:20:12.624Z,2652.00
2018-08-22T11:21:12.626Z,2652.00
2018-08-22T11:22:12.633Z,2652.00
2018-08-22T11:23:12.637Z,2648.00
2018-08-22T11:24:12.640Z,2644.00
2018-08-22T11:25:12.645Z,2636.00
2018-08-22T11:26:12.652Z,2632.00
2018-08-22T11:27:12.655Z,2628.00
2018-08-22T11:28:12.656Z,2624.00
2018-08-22T11:29:12.661Z,2620.00
2018-08-22T11:30:12.671Z,2612.00
2018-08-22T11:31:12.668Z,2608.00
2018-08-22T11:32:12.675Z,2604.00
2018-08-22T11:33:12.674Z,2584.00
2018-08-22T11:34:12.680Z,2596.00
2018-08-22T11:35:12.680Z,2592.00
2018-08-22T11:36:12.689Z,2596.00
2018-08-22T11:37:12.688Z,2580.00
2018-08-22T11:38:12.697Z,2584.00
2018-08-22T11:39:12.699Z,2580.00
2018-08-22T11:40:12.706Z,2576.00
2018-08-22T11:41:12.710Z,2576.00
2018-08-22T11:42:12.709Z,2564.00
2018-08-22T11:43:12.716Z,2556.00
2018-08-22T11:44:12.722Z,2548.00
2018-08-22T11:45:12.724Z,2552.00
2018-08-22T11:46:12.731Z,2556.00
2018-08-22T11:47:12.740Z,2552.00
2018-08-22T11:48:12.741Z,2544.00
2018-08-22T11:49:12.741Z,2536.00
2018-08-22T11:50:12.749Z,2556.00
2018-08-22T11:51:12.748Z,2552.00
2018-08-22T11:52:12.758Z,2556.00
2018-08-22T11:53:12.765Z,2560.00
2018-08-22T11:54:12.765Z,2552.00
2018-08-22T11:55:12.767Z,2536.00
2018-08-22T11:56:12.772Z,2540.00
2018-08-22T11:57:12.775Z,2556.00
2018-08-22T11:58:12.784Z,2496.00
2018-08-22T11:59:12.783Z,2536.00
2018-08-22T12:00:12.787Z,2540.00
2018-08-22T12:01:12.792Z,2544.00
2018-08-22T12:02:12.797Z,2540.00
2018-08-22T12:03:12.803Z,2536.00
2018-08-22T12:04:12.807Z,2536.00
2018-08-22T12:05:12.809Z,2532.00
2018-08-22T12:06:12.814Z,2540.00
2018-08-22T12:07:12.821Z,2536.00
2018-08-22T12:08:12.823Z,2540.00
2018-08-22T12:09:12.827Z,2544.00
2018-08-22T12:10:12.831Z,2544.00
2018-08-22T12:11:12.834Z,2552.00
2018-08-22T12:12:12.845Z,2552.00
2018-08-22T12:13:12.844Z,2544.00
2018-08-22T12:14:12.849Z,2540.00
2018-08-22T12:15:12.856Z,2540.00
2018-08-22T12:16:12.945Z,2540.00
2018-08-22T12:17:12.860Z,2544.00
2018-08-22T12:18:12.865Z,2536.00
2018-08-22T12:19:12.871Z,2520.00
2018-08-22T12:20:12.879Z,2528.00
2018-08-22T12:21:12.882Z,2536.00
2018-08-22T12:22:12.889Z,2536.00
2018-08-22T12:23:12.975Z,2536.00
2018-08-22T12:24:12.894Z,2532.00
2018-08-22T12:25:12.898Z,2528.00